Saturday, May 26, 2018, 8:07 AM EDT
Back to Local

KDKK, Chautauqua County/dunkirk

Location: Dunkirk, NY, United States Lat: 42.5
Local Time: 8:07 AM EDT (12:07 GMT) Lon: -79.283
Time Zone: US/Eastern Elev: 692 ft

Show me the last for .
Show Decoded

2018-05-26 07:53 METAR KDKK 261153Z AUTO 20009KT 10SM CLR 21/12 A2982 RMK AO2 SLP094 T02110122
                 10211 20183 53011 $ =
2018-05-26 06:53 METAR KDKK 261053Z AUTO 20009KT 10SM CLR 20/11 A2981 RMK AO2 SLP090 T02000111 $
                 =
2018-05-26 05:53 METAR KDKK 260953Z AUTO 20008KT 10SM CLR 19/11 A2980 RMK AO2 SLP087 T01890111 $
                 =
2018-05-26 04:53 METAR KDKK 260853Z AUTO 20009KT 10SM CLR 20/11 A2979 RMK AO2 SLP083 T02000106
                 56012 $ =
2018-05-26 03:53 METAR KDKK 260753Z AUTO 20008KT 10SM CLR 20/11 A2980 RMK AO2 SLP085 T02000106 $
                 =
2018-05-26 02:53 METAR KDKK 260653Z AUTO 20009KT 10SM CLR 19/11 A2980 RMK AO2 SLP089 T01940106 $
                 =
2018-05-26 01:53 METAR KDKK 260553Z AUTO 20008KT 10SM CLR 18/11 A2982 RMK AO2 SLP095 T01830111
                 10228 20144 56008 $ =
2018-05-26 00:53 METAR KDKK 260453Z AUTO 20004KT 10SM CLR 17/11 A2982 RMK AO2 SLP096 T01720106
                 402610111 $ =
2018-05-25 23:53 METAR KDKK 260353Z AUTO 18004KT 10SM CLR 18/11 A2984 RMK AO2 SLP100 T01780111 $
                 =
2018-05-25 22:53 METAR KDKK 260253Z AUTO 19003KT 10SM CLR 14/12 A2985 RMK AO2 SLP104 T01440117
                 56003 $ =
2018-05-25 21:53 METAR KDKK 260153Z AUTO 16003KT 10SM CLR 16/12 A2985 RMK AO2 SLP105 T01610122 $
                 =
2018-05-25 20:53 METAR KDKK 260053Z AUTO 19003KT 10SM CLR 18/12 A2985 RMK AO2 SLP106 T01830117 $
                 =
2018-05-25 19:53 METAR KDKK 252353Z AUTO 23004KT 10SM CLR 23/09 A2986 RMK AO2 SLP107 T02280094
                 10261 20228 56012 $ =
2018-05-25 18:53 METAR KDKK 252253Z AUTO 24008KT 10SM CLR 23/09 A2986 RMK AO2 SLP108 T02330094 $
                 =
2018-05-25 17:53 METAR KDKK 252153Z AUTO 23009KT 10SM CLR 24/10 A2988 RMK AO2 SLP115 T02440100 $
                 =
2018-05-25 16:53 METAR KDKK 252053Z AUTO 28010KT 10SM CLR 24/09 A2989 RMK AO2 SLP120 T02440094
                 56019 $ =
2018-05-25 15:53 METAR KDKK 251953Z AUTO 23009KT 10SM CLR 26/11 A2990 RMK AO2 SLP122 T02610111 $
                 =
2018-05-25 14:53 METAR KDKK 251853Z AUTO 25009KT 10SM CLR 25/11 A2993 RMK AO2 SLP131 T02500106 $
                 =
2018-05-25 13:53 METAR KDKK 251753Z AUTO 26011KT 10SM CLR 26/11 A2995 RMK AO2 SLP140 T02560106
                 10261 20200 58010 $ =
2018-05-25 12:53 METAR KDKK 251653Z AUTO 24013KT 10SM CLR 25/11 A2997 RMK AO2 SLP146 T02500106 $
                 =
2018-05-25 11:53 METAR KDKK 251553Z AUTO 27006KT 10SM CLR 24/12 A2998 RMK AO2 SLP148 T02390117 $
                 =
2018-05-25 10:53 METAR KDKK 251453Z AUTO 27009KT 10SM CLR 26/09 A2998 RMK AO2 SLP150 T02610094
                 58009 $ =
2018-05-25 09:53 METAR KDKK 251353Z AUTO 20006KT 10SM CLR 24/11 A3000 RMK AO2 SLP157 T02390111 $
                 =
2018-05-25 08:53 METAR KDKK 251253Z AUTO 19008KT 10SM CLR 22/11 A3001 RMK AO2 SLP160 T02170106 $
                 =

Support USWX by starting your Amazon purchase here.